createdAt,value
2023-05-03T00:01:48.838Z,0.40
2023-05-03T00:04:19.259Z,0.50
2023-05-03T00:06:50.262Z,0.50
2023-05-03T00:09:23.249Z,0.40
2023-05-03T00:11:53.641Z,0.43
2023-05-03T00:14:23.808Z,0.40
2023-05-03T00:17:02.473Z,0.32
2023-05-03T00:19:37.788Z,0.60
2023-05-03T00:22:07.938Z,0.63
2023-05-03T00:24:40.686Z,0.60
2023-05-03T00:27:12.872Z,0.43
2023-05-03T00:29:43.716Z,0.50
2023-05-03T00:32:13.924Z,0.68
2023-05-03T00:34:44.652Z,0.60
2023-05-03T00:37:15.070Z,0.60
2023-05-03T00:39:48.047Z,0.45
2023-05-03T00:42:19.805Z,0.60
2023-05-03T00:44:49.925Z,0.80
2023-05-03T00:47:21.015Z,0.90
2023-05-03T00:49:51.799Z,0.82
2023-05-03T00:52:22.095Z,0.70
2023-05-03T00:54:55.361Z,0.60
2023-05-03T00:57:33.406Z,0.50
2023-05-03T01:00:04.144Z,0.55
2023-05-03T01:02:35.012Z,0.43
2023-05-03T01:05:07.524Z,0.57
2023-05-03T01:07:46.708Z,0.50
2023-05-03T01:10:28.526Z,0.50
2023-05-03T01:13:08.904Z,0.52
2023-05-03T01:15:51.290Z,0.50
2023-05-03T01:18:27.139Z,0.40
2023-05-03T01:20:59.460Z,0.57
2023-05-03T01:23:39.584Z,0.57
2023-05-03T01:26:26.541Z,0.60
2023-05-03T01:29:00.453Z,0.60
2023-05-03T01:31:48.443Z,0.75
2023-05-03T01:34:28.729Z,0.65
2023-05-03T01:37:03.473Z,0.43
2023-05-03T01:39:40.245Z,0.80
2023-05-03T01:42:13.219Z,0.80
2023-05-03T01:44:44.970Z,0.50
2023-05-03T01:47:16.061Z,0.65
2023-05-03T01:49:46.267Z,0.75
2023-05-03T01:52:19.036Z,0.47
2023-05-03T01:54:49.309Z,0.52
2023-05-03T01:57:23.600Z,0.40
2023-05-03T02:02:26.354Z,0.70
2023-05-03T02:04:56.515Z,0.43
2023-05-03T02:07:26.883Z,0.80
2023-05-03T02:09:56.948Z,0.60
2023-05-03T02:12:30.398Z,0.40
2023-05-03T02:15:03.856Z,0.60
2023-05-03T02:17:35.122Z,1.05
2023-05-03T02:20:05.964Z,0.60
2023-05-03T02:22:37.802Z,0.60
2023-05-03T02:25:09.527Z,0.80
2023-05-03T02:27:45.436Z,0.73
2023-05-03T02:30:16.362Z,0.85
2023-05-03T02:32:47.341Z,0.70
2023-05-03T02:35:18.837Z,0.60
2023-05-03T02:37:48.958Z,0.60
2023-05-03T02:40:20.004Z,0.57
2023-05-03T02:42:54.486Z,0.50
2023-05-03T02:45:31.780Z,0.77
2023-05-03T02:48:01.973Z,0.75
2023-05-03T02:50:32.797Z,0.85
2023-05-03T02:53:04.668Z,0.82
2023-05-03T02:55:34.988Z,0.80
2023-05-03T02:58:10.223Z,0.75
2023-05-03T03:03:12.001Z,0.70
2023-05-03T03:05:42.697Z,0.60
2023-05-03T03:08:16.822Z,0.93
2023-05-03T03:10:47.596Z,0.65
2023-05-03T03:13:20.482Z,0.85
2023-05-03T03:15:51.273Z,1.30
2023-05-03T03:18:21.668Z,0.90
2023-05-03T03:20:51.795Z,0.80
2023-05-03T03:23:26.360Z,0.90
2023-05-03T03:25:56.460Z,1.05
2023-05-03T03:28:39.328Z,0.88
2023-05-03T03:31:15.173Z,0.80
2023-05-03T03:33:50.703Z,0.88
2023-05-03T03:36:23.924Z,0.98
2023-05-03T03:38:54.218Z,1.00
2023-05-03T03:41:24.963Z,1.13
2023-05-03T03:44:01.430Z,1.08
2023-05-03T03:46:31.459Z,0.77
2023-05-03T03:49:02.587Z,1.00
2023-05-03T03:51:38.929Z,0.80
2023-05-03T03:54:09.354Z,0.90
2023-05-03T03:56:44.421Z,1.00
2023-05-03T03:59:17.215Z,1.00
2023-05-03T04:01:48.456Z,0.98
2023-05-03T04:04:19.381Z,1.23
2023-05-03T04:06:50.567Z,0.90
2023-05-03T04:09:21.722Z,2.17
2023-05-03T04:11:52.034Z,1.40
2023-05-03T04:14:25.515Z,1.50
2023-05-03T04:17:04.741Z,1.40
2023-05-03T04:19:38.925Z,0.90
2023-05-03T04:22:10.244Z,1.00
2023-05-03T04:24:40.858Z,1.02
2023-05-03T04:27:17.850Z,0.68
2023-05-03T04:29:50.999Z,1.00
2023-05-03T04:32:23.375Z,1.10
2023-05-03T04:37:31.120Z,0.90
2023-05-03T04:40:01.837Z,1.20
2023-05-03T04:42:39.102Z,0.98
2023-05-03T04:45:14.744Z,0.82
2023-05-03T04:47:45.323Z,1.00
2023-05-03T04:50:15.607Z,0.82
2023-05-03T04:52:48.164Z,0.80
2023-05-03T04:55:18.732Z,0.60
2023-05-03T04:57:49.487Z,1.17
2023-05-03T05:00:23.754Z,1.17
2023-05-03T05:03:01.412Z,1.33
2023-05-03T05:05:34.153Z,0.90
2023-05-03T05:08:04.675Z,0.93
2023-05-03T05:10:43.602Z,0.68
2023-05-03T05:13:20.402Z,1.20
2023-05-03T05:15:53.032Z,0.90
2023-05-03T05:18:23.173Z,0.90
2023-05-03T05:20:53.864Z,1.23
2023-05-03T05:23:24.893Z,1.50
2023-05-03T05:26:02.650Z,1.00
2023-05-03T05:28:37.392Z,0.90
2023-05-03T05:31:18.141Z,0.60
2023-05-03T05:33:51.257Z,0.95
2023-05-03T05:36:24.752Z,1.88
2023-05-03T05:38:55.526Z,1.00
2023-05-03T05:41:27.007Z,0.70
2023-05-03T05:43:58.904Z,1.25
2023-05-03T05:46:44.619Z,1.10
2023-05-03T05:49:16.725Z,0.80
2023-05-03T05:51:46.834Z,0.85
2023-05-03T05:54:18.050Z,0.93
2023-05-03T05:56:50.989Z,1.27
2023-05-03T05:59:21.756Z,0.90
2023-05-03T06:01:54.508Z,1.10
2023-05-03T06:04:24.918Z,1.02
2023-05-03T06:06:55.228Z,1.45
2023-05-03T06:09:35.288Z,1.25
2023-05-03T06:12:07.723Z,1.15
2023-05-03T06:14:55.352Z,1.52
2023-05-03T06:17:36.941Z,1.42
2023-05-03T06:20:11.996Z,1.85
2023-05-03T06:22:43.624Z,1.40
2023-05-03T06:25:17.782Z,1.73
2023-05-03T06:27:52.153Z,1.80
2023-05-03T06:30:25.969Z,0.93
2023-05-03T06:32:59.253Z,1.27
2023-05-03T06:35:29.834Z,1.40
2023-05-03T06:38:02.026Z,1.33
2023-05-03T06:40:32.129Z,1.42
2023-05-03T06:43:05.383Z,1.08
2023-05-03T06:45:38.854Z,1.50
2023-05-03T06:48:13.974Z,1.08
2023-05-03T06:50:45.360Z,0.88
2023-05-03T06:53:24.356Z,1.25
2023-05-03T06:55:57.010Z,1.08
2023-05-03T06:58:29.432Z,1.13
2023-05-03T07:00:59.553Z,1.10
2023-05-03T07:03:32.778Z,0.70
2023-05-03T07:06:03.239Z,0.85
2023-05-03T07:08:33.560Z,0.90
2023-05-03T07:11:04.359Z,0.40
2023-05-03T07:13:34.379Z,0.85
2023-05-03T07:16:04.827Z,0.70
2023-05-03T07:18:37.598Z,0.50
2023-05-03T07:21:09.475Z,0.50
2023-05-03T07:23:39.784Z,0.73
2023-05-03T07:26:11.506Z,0.63
2023-05-03T07:28:43.521Z,0.50
2023-05-03T07:31:16.488Z,0.68
2023-05-03T07:33:49.307Z,0.40
2023-05-03T07:36:19.529Z,0.65
2023-05-03T07:38:49.757Z,0.40
2023-05-03T07:41:19.863Z,0.77
2023-05-03T07:43:50.430Z,0.70
2023-05-03T07:46:23.373Z,0.52
2023-05-03T07:48:56.117Z,0.50
2023-05-03T07:51:26.990Z,0.20
2023-05-03T07:54:01.096Z,0.50
2023-05-03T07:59:10.114Z,0.43
2023-05-03T08:01:40.675Z,0.50
2023-05-03T08:04:13.918Z,0.57
2023-05-03T08:06:45.100Z,0.60
2023-05-03T08:09:16.320Z,0.32
2023-05-03T08:11:46.474Z,0.40
2023-05-03T08:14:16.891Z,0.63
2023-05-03T08:16:49.219Z,0.43
2023-05-03T08:19:37.403Z,0.40
2023-05-03T08:22:07.923Z,0.40
2023-05-03T08:24:38.043Z,0.90
2023-05-03T08:27:09.815Z,0.70
2023-05-03T08:29:40.021Z,0.50
2023-05-03T08:32:17.036Z,0.95
2023-05-03T08:34:49.621Z,0.40
2023-05-03T08:37:20.215Z,0.50
2023-05-03T08:39:50.317Z,0.77
2023-05-03T08:42:25.892Z,0.50
2023-05-03T08:44:57.592Z,0.80
2023-05-03T08:47:32.118Z,0.60
2023-05-03T08:50:10.107Z,0.63
2023-05-03T08:52:40.372Z,0.55
2023-05-03T08:55:14.105Z,0.60
2023-05-03T08:57:44.221Z,0.50
2023-05-03T09:00:16.184Z,0.30
2023-05-03T09:02:46.278Z,0.50
2023-05-03T09:05:44.475Z,0.25
2023-05-03T09:08:17.319Z,0.80
2023-05-03T09:10:47.644Z,0.68
2023-05-03T09:13:17.723Z,0.40
2023-05-03T09:15:57.307Z,0.40
2023-05-03T09:18:31.091Z,0.60
2023-05-03T09:21:03.625Z,0.63
2023-05-03T09:23:34.084Z,0.68
2023-05-03T09:26:07.837Z,0.57
2023-05-03T09:28:44.583Z,0.95
2023-05-03T09:31:14.631Z,0.38
2023-05-03T09:33:44.583Z,0.47
2023-05-03T09:36:17.815Z,0.52
2023-05-03T09:38:48.156Z,0.40
2023-05-03T09:41:29.537Z,0.70
2023-05-03T09:44:03.196Z,0.70
2023-05-03T09:46:33.590Z,0.47
2023-05-03T09:49:04.939Z,0.30
2023-05-03T09:51:38.158Z,0.20
2023-05-03T09:54:10.244Z,0.75
2023-05-03T09:56:40.853Z,0.35
2023-05-03T09:59:13.183Z,0.88
2023-05-03T10:01:43.671Z,0.80
2023-05-03T10:04:14.788Z,0.43
2023-05-03T10:06:52.977Z,0.40
2023-05-03T10:09:29.963Z,1.05
2023-05-03T10:12:03.257Z,0.45
2023-05-03T10:14:34.013Z,0.73
2023-05-03T10:17:07.900Z,0.60
2023-05-03T10:19:50.896Z,0.60
2023-05-03T10:22:23.905Z,0.55
2023-05-03T10:25:16.090Z,0.60
2023-05-03T10:27:57.024Z,0.43
2023-05-03T10:30:32.795Z,0.28
2023-05-03T10:33:03.369Z,0.77
2023-05-03T10:35:34.273Z,0.35
2023-05-03T10:38:17.368Z,0.60
2023-05-03T10:40:47.673Z,0.60
2023-05-03T10:43:46.330Z,0.40
2023-05-03T10:46:36.119Z,0.50
2023-05-03T10:49:34.256Z,0.60
2023-05-03T10:52:04.327Z,0.52
2023-05-03T10:54:36.992Z,0.43
2023-05-03T10:57:08.056Z,0.40
2023-05-03T10:59:53.249Z,0.30
2023-05-03T11:02:29.752Z,0.40
2023-05-03T11:05:05.975Z,1.08
2023-05-03T11:07:37.708Z,0.38
2023-05-03T11:10:22.454Z,0.43
2023-05-03T11:12:52.986Z,0.55
2023-05-03T11:15:23.115Z,0.50
2023-05-03T11:17:53.337Z,0.40
2023-05-03T11:20:24.399Z,0.52
2023-05-03T11:22:55.215Z,0.80
2023-05-03T11:25:28.263Z,0.82
2023-05-03T11:28:01.938Z,0.50
2023-05-03T11:30:33.171Z,0.57
2023-05-03T11:33:03.759Z,0.40
2023-05-03T11:35:34.447Z,0.50
2023-05-03T11:38:05.043Z,0.22
2023-05-03T11:40:42.492Z,0.40
2023-05-03T11:43:13.440Z,0.40
2023-05-03T11:45:47.158Z,0.60
2023-05-03T11:48:18.379Z,0.45
2023-05-03T11:50:51.746Z,0.30
2023-05-03T11:53:22.429Z,0.20
2023-05-03T11:55:56.425Z,0.30
2023-05-03T11:58:28.130Z,0.30
2023-05-03T12:01:00.033Z,0.80
2023-05-03T12:03:33.377Z,0.30
2023-05-03T12:06:05.096Z,0.60
2023-05-03T12:08:38.230Z,0.68
2023-05-03T12:11:17.801Z,0.77
2023-05-03T12:13:51.016Z,0.65
2023-05-03T12:16:23.174Z,1.05
2023-05-03T12:18:56.695Z,1.15
2023-05-03T12:21:31.639Z,0.50
2023-05-03T12:24:06.046Z,0.75
2023-05-03T12:26:40.202Z,0.80
2023-05-03T12:29:12.983Z,1.02
2023-05-03T12:31:44.143Z,0.63
2023-05-03T12:34:32.768Z,0.73
2023-05-03T12:37:07.569Z,0.55
2023-05-03T12:39:56.312Z,0.60
2023-05-03T12:42:43.273Z,0.70
2023-05-03T12:45:15.406Z,0.50
2023-05-03T12:47:49.862Z,0.70
2023-05-03T12:50:24.390Z,0.45
2023-05-03T12:52:55.101Z,0.60
2023-05-03T12:55:26.883Z,0.65
2023-05-03T12:58:32.309Z,0.60
2023-05-03T13:01:37.155Z,0.50
2023-05-03T13:03:44.301Z,1.05
2023-05-03T13:06:17.253Z,0.50
2023-05-03T13:08:50.101Z,0.88
2023-05-03T13:11:21.736Z,0.68
2023-05-03T13:13:55.166Z,0.90
2023-05-03T13:16:26.150Z,0.50
2023-05-03T13:18:56.829Z,0.60
2023-05-03T13:21:30.753Z,0.60
2023-05-03T13:24:01.385Z,0.50
2023-05-03T13:26:32.268Z,0.60
2023-05-03T13:29:05.494Z,0.47
2023-05-03T13:31:38.068Z,0.30
2023-05-03T13:34:08.232Z,0.60
2023-05-03T13:36:38.376Z,0.63
2023-05-03T13:39:12.131Z,0.70
2023-05-03T13:41:49.826Z,0.70
2023-05-03T13:44:25.406Z,0.45
2023-05-03T13:46:56.492Z,0.70
2023-05-03T13:49:26.653Z,0.40
2023-05-03T13:51:57.688Z,0.30
2023-05-03T13:54:29.520Z,0.70
2023-05-03T13:57:01.520Z,0.45
2023-05-03T13:59:34.282Z,0.63
2023-05-03T14:02:04.589Z,0.50
2023-05-03T14:04:34.927Z,0.60
2023-05-03T14:07:05.090Z,1.40
2023-05-03T14:09:39.602Z,0.50
2023-05-03T14:12:10.461Z,0.57
2023-05-03T14:14:46.181Z,0.50
2023-05-03T14:17:16.360Z,0.20
2023-05-03T14:19:47.479Z,0.60
2023-05-03T14:22:26.379Z,0.55
2023-05-03T14:24:56.990Z,0.40
2023-05-03T14:27:28.190Z,0.40
2023-05-03T14:30:01.068Z,0.70
2023-05-03T14:32:31.328Z,0.55
2023-05-03T14:35:02.182Z,0.50
2023-05-03T14:37:33.633Z,1.00
2023-05-03T14:40:05.878Z,0.55
2023-05-03T14:42:37.313Z,0.88
2023-05-03T14:45:16.297Z,1.27
2023-05-03T14:47:46.575Z,0.60
2023-05-03T14:50:17.137Z,0.93
2023-05-03T14:52:47.571Z,0.80
2023-05-03T14:55:21.532Z,0.82
2023-05-03T14:57:53.468Z,0.60
2023-05-03T15:00:28.038Z,0.70
2023-05-03T15:02:58.453Z,0.70
2023-05-03T15:05:28.446Z,0.45
2023-05-03T15:07:59.099Z,0.30
2023-05-03T15:10:29.187Z,0.40
2023-05-03T15:12:59.247Z,0.98
2023-05-03T15:15:37.469Z,0.65
2023-05-03T15:18:08.292Z,0.45
2023-05-03T15:20:38.956Z,0.85
2023-05-03T15:23:09.491Z,0.70
2023-05-03T15:28:27.654Z,1.00
2023-05-03T15:31:00.516Z,0.50
2023-05-03T15:33:31.447Z,0.80
2023-05-03T15:36:10.754Z,0.52
2023-05-03T15:38:41.587Z,0.30
2023-05-03T15:41:11.733Z,0.40
2023-05-03T15:43:44.164Z,0.50
2023-05-03T15:46:16.726Z,0.60
2023-05-03T15:48:46.997Z,0.40
2023-05-03T15:51:16.956Z,0.60
2023-05-03T15:53:47.380Z,0.85
2023-05-03T15:56:17.514Z,0.50
2023-05-03T15:58:48.391Z,0.40
2023-05-03T16:01:23.690Z,0.43
2023-05-03T16:03:57.649Z,0.57
2023-05-03T16:06:30.163Z,0.38
2023-05-03T16:09:00.143Z,0.50
2023-05-03T16:11:30.269Z,0.50
2023-05-03T16:14:00.379Z,0.40
2023-05-03T16:16:33.800Z,0.60
2023-05-03T16:19:04.427Z,0.50
2023-05-03T16:21:34.748Z,1.00
2023-05-03T16:24:05.416Z,0.68
2023-05-03T16:26:35.531Z,1.05
2023-05-03T16:29:05.905Z,0.63
2023-05-03T16:31:38.646Z,0.63
2023-05-03T16:34:08.936Z,0.90
2023-05-03T16:36:42.943Z,0.80
2023-05-03T16:41:43.804Z,0.60
2023-05-03T16:44:14.386Z,1.20
2023-05-03T16:46:48.349Z,0.77
2023-05-03T16:49:19.571Z,0.50
2023-05-03T16:51:49.660Z,0.70
2023-05-03T16:54:19.813Z,0.73
2023-05-03T16:56:49.914Z,0.47
2023-05-03T16:59:20.245Z,0.50
2023-05-03T17:01:53.072Z,0.57
2023-05-03T17:04:25.355Z,0.60
2023-05-03T17:06:56.318Z,0.95
2023-05-03T17:09:26.534Z,0.45
2023-05-03T17:11:59.833Z,0.77
2023-05-03T17:17:05.062Z,0.57
2023-05-03T17:19:35.572Z,0.57
2023-05-03T17:22:05.831Z,0.82
2023-05-03T17:24:36.318Z,0.35
2023-05-03T17:27:07.390Z,0.52
2023-05-03T17:29:38.489Z,1.13
2023-05-03T17:32:11.216Z,0.40
2023-05-03T17:34:41.546Z,0.60
2023-05-03T17:37:11.754Z,0.60
2023-05-03T17:39:42.263Z,0.50
2023-05-03T17:42:12.570Z,0.90
2023-05-03T17:44:43.157Z,0.40
2023-05-03T17:47:16.889Z,0.50
2023-05-03T17:49:50.446Z,0.88
2023-05-03T17:52:20.636Z,0.40
2023-05-03T17:54:52.171Z,0.40
2023-05-03T17:57:23.074Z,0.63
2023-05-03T17:59:53.496Z,0.43
2023-05-03T18:02:26.393Z,0.40
2023-05-03T18:04:58.231Z,0.73
2023-05-03T18:07:29.878Z,0.60
2023-05-03T18:10:00.226Z,0.38
2023-05-03T18:12:30.414Z,0.40
2023-05-03T18:15:02.222Z,0.70
2023-05-03T18:17:36.395Z,0.60
2023-05-03T18:20:07.651Z,0.60
2023-05-03T18:22:37.796Z,0.47
2023-05-03T18:25:08.928Z,0.32
2023-05-03T18:27:39.429Z,0.50
2023-05-03T18:30:10.760Z,0.40
2023-05-03T18:32:44.104Z,0.32
2023-05-03T18:35:15.223Z,0.50
2023-05-03T18:37:45.589Z,0.40
2023-05-03T18:40:17.520Z,0.45
2023-05-03T18:42:47.962Z,0.50
2023-05-03T18:45:19.779Z,0.47
2023-05-03T18:47:53.152Z,0.38
2023-05-03T18:50:31.701Z,0.50
2023-05-03T18:53:04.130Z,0.43
2023-05-03T18:55:36.883Z,0.40
2023-05-03T18:58:07.010Z,0.50
2023-05-03T19:00:37.043Z,0.50
2023-05-03T19:03:13.842Z,0.20
2023-05-03T19:05:44.018Z,0.45
2023-05-03T19:08:14.731Z,0.40
2023-05-03T19:10:44.973Z,0.43
2023-05-03T19:13:16.854Z,0.52
2023-05-03T19:15:47.183Z,0.55
2023-05-03T19:18:24.612Z,0.70
2023-05-03T19:20:55.386Z,0.40
2023-05-03T19:23:25.627Z,0.30
2023-05-03T19:25:58.425Z,0.60
2023-05-03T19:28:28.610Z,0.40
2023-05-03T19:30:58.738Z,0.75
2023-05-03T19:33:32.130Z,0.50
2023-05-03T19:36:06.893Z,0.37
2023-05-03T19:38:37.591Z,0.70
2023-05-03T19:41:12.223Z,0.47
2023-05-03T19:43:42.756Z,0.55
2023-05-03T19:46:12.940Z,0.47
2023-05-03T19:48:46.141Z,0.60
2023-05-03T19:51:16.860Z,0.40
2023-05-03T19:53:48.909Z,0.60
2023-05-03T19:56:21.765Z,0.52
2023-05-03T19:58:52.511Z,0.50
2023-05-03T20:01:23.488Z,0.50
2023-05-03T20:03:56.787Z,0.50
2023-05-03T20:06:27.226Z,0.60
2023-05-03T20:08:59.810Z,0.57
2023-05-03T20:11:30.326Z,0.40
2023-05-03T20:14:00.349Z,0.77
2023-05-03T20:16:33.672Z,0.60
2023-05-03T20:19:07.094Z,0.70
2023-05-03T20:21:37.479Z,0.70
2023-05-03T20:24:11.051Z,0.60
2023-05-03T20:26:41.375Z,0.70
2023-05-03T20:29:11.487Z,0.80
2023-05-03T20:31:41.911Z,0.75
2023-05-03T20:34:14.745Z,0.88
2023-05-03T20:36:44.793Z,0.70
2023-05-03T20:39:14.938Z,0.80
2023-05-03T20:41:44.967Z,0.80
2023-05-03T20:44:15.115Z,0.70
2023-05-03T20:46:45.877Z,0.80
2023-05-03T20:49:25.692Z,0.85
2023-05-03T20:51:56.751Z,1.08
2023-05-03T20:54:26.817Z,0.93
2023-05-03T20:56:57.552Z,1.27
2023-05-03T20:59:27.897Z,1.10
2023-05-03T21:01:58.180Z,1.20
2023-05-03T21:04:32.929Z,0.90
2023-05-03T21:07:03.833Z,0.93
2023-05-03T21:09:34.047Z,1.20
2023-05-03T21:12:04.576Z,0.90
2023-05-03T21:14:40.066Z,1.05
2023-05-03T21:17:12.596Z,0.80
2023-05-03T21:19:46.086Z,0.90
2023-05-03T21:22:16.464Z,0.80
2023-05-03T21:24:46.905Z,1.02
2023-05-03T21:27:17.064Z,1.15
2023-05-03T21:29:49.696Z,0.82
2023-05-03T21:32:27.230Z,0.93
2023-05-03T21:35:02.528Z,0.60
2023-05-03T21:37:33.496Z,0.90
2023-05-03T21:40:04.676Z,0.90
2023-05-03T21:42:34.855Z,0.85
2023-05-03T21:45:12.121Z,0.80
2023-05-03T21:47:46.961Z,0.90
2023-05-03T21:50:19.771Z,1.00
2023-05-03T21:52:49.784Z,0.80
2023-05-03T21:55:19.755Z,0.80
2023-05-03T21:57:51.613Z,1.10
2023-05-03T22:00:22.581Z,1.17
2023-05-03T22:02:52.780Z,0.90
2023-05-03T22:05:29.398Z,1.23
2023-05-03T22:07:59.311Z,1.08
2023-05-03T22:10:29.497Z,1.80
2023-05-03T22:13:00.120Z,1.40
2023-05-03T22:15:33.740Z,1.23
2023-05-03T22:18:03.930Z,1.10
2023-05-03T22:20:36.913Z,1.13
2023-05-03T22:23:10.208Z,1.95
2023-05-03T22:25:40.431Z,1.70
2023-05-03T22:28:18.249Z,1.50
2023-05-03T22:30:48.347Z,1.20
2023-05-03T22:33:21.038Z,1.20
2023-05-03T22:35:53.703Z,1.23
2023-05-03T22:38:23.925Z,1.40
2023-05-03T22:40:54.006Z,1.52
2023-05-03T22:43:24.170Z,1.75
2023-05-03T22:45:56.341Z,1.40
2023-05-03T22:48:29.956Z,1.10
2023-05-03T22:51:02.932Z,1.30
2023-05-03T22:53:35.489Z,0.98
2023-05-03T22:56:07.178Z,1.20
2023-05-03T22:58:39.009Z,1.42
2023-05-03T23:01:12.746Z,1.48
2023-05-03T23:03:43.814Z,1.60
2023-05-03T23:06:17.119Z,1.10
2023-05-03T23:08:47.212Z,1.50
2023-05-03T23:11:25.215Z,0.95
2023-05-03T23:13:57.964Z,1.23
2023-05-03T23:16:28.565Z,1.13
2023-05-03T23:18:58.742Z,0.90
2023-05-03T23:21:34.053Z,1.10
2023-05-03T23:24:04.372Z,0.88
2023-05-03T23:26:34.558Z,1.00
2023-05-03T23:29:05.157Z,0.95
2023-05-03T23:31:36.137Z,1.15
2023-05-03T23:34:08.627Z,1.10
2023-05-03T23:36:41.286Z,1.55
2023-05-03T23:39:20.515Z,1.20
2023-05-03T23:41:50.660Z,1.00
2023-05-03T23:44:21.272Z,1.38
2023-05-03T23:46:51.540Z,1.00
2023-05-03T23:49:21.983Z,1.10
2023-05-03T23:51:54.606Z,1.17
2023-05-03T23:54:25.594Z,1.02
2023-05-03T23:56:55.720Z,0.93
2023-05-03T23:59:29.553Z,1.00
